Galt, Canada
Current Conditions -  °F | °C
As of 6:00 PM on Friday 31 Oct 2014 (Local Time) from CYKF Reporting Station
Light Rain Light Rain  
Wind Chill: 40°   Ceiling: 1900
Heat Index: 43°   Visibility: 9mi
Dew Point: 39°   Wind: 5mph
Humidity: 87%   Direction: 20°NNE
Pressure: 29.91"   Gusts: NA
Location:  43.35°N, 80.3°W
Report Text: CYKF 312200Z AUTO 02004KT 9SM -RA BKN019 06/04 A2991 RMK SLP136
Loading
Personal Weather Stations






























Interactive Weather Map
Tropical Storm Tracking
New forecast layout! Learn more

10-Day Weather Forecast

Advertisements
Track Severe Weather on mobile